Ustick, Illinois
Current Conditions -  °F | °C
As of 9:15 PM on Monday 20 Oct 2014 (Local Time) from KSQI Reporting Station
Few Clouds Few Clouds  
Wind Chill: 46°   Ceiling: Unl
Heat Index: 48°   Visibility: 10mi
Dew Point: 39°   Wind: 6mph
Humidity: 71%   Direction: 70°ENE
Pressure: 30"   Gusts: NA
Location:  41.8285°N, 89.9656°W
Report Text: KSQI 210215Z AUTO 07005KT 10SM FEW060 09/04 A3000 RMK AO1
Loading
Personal Weather Stations






























Interactive Weather Map New forecast layout! Learn more

10-Day Weather Forecast

Advertisements
Track Severe Weather on mobile